Time;durP1;ratioP1;P1;durP2;ratioP2;P2;SDS_P1;SDS_P2;PMS_P1;PMS_P2;Temp;Humidity;BMP_temperature;BMP_pressure;BME280_temperature;BME280_humidity;BME280_pressure;Samples;Min_cycle;Max_cycle;Signal;HPM_P1;HPM_P2
2023/11/11 00:01:40;;;;;;;;;;;;;;;;;;5053178;28;19928;-85
2023/11/11 00:04:05;;;;;;;;;;;;;;;;;;5037389;28;19952;-87
2023/11/11 00:06:30;;;;;;;;;;;;;;;;;;5045949;28;19921;-86
2023/11/11 00:08:56;;;;;;;;;;;;;;;;;;5031941;28;20337;-87
2023/11/11 00:11:21;;;;;;;;;;;;;;;;;;5030563;28;19921;-86
2023/11/11 00:13:47;;;;;;;;;;;;;;;;;;5045772;28;19921;-87
2023/11/11 00:16:12;;;;;;;;;;;;;;;;;;5041104;28;19917;-87
2023/11/11 00:18:37;;;;;;;;;;;;;;;;;;5032927;28;19943;-87
2023/11/11 00:21:03;;;;;;;;;;;;;;;;;;5022371;28;19918;-87
2023/11/11 00:23:30;;;;;;;;;;;;;;;;;;5051384;28;19931;-87
2023/11/11 00:25:55;;;;;;;;;;;;;;;;;;5032561;28;20174;-87
2023/11/11 00:28:20;;;;;;;;;;;;;;;;;;5043370;28;19995;-86
2023/11/11 00:30:46;;;;;;;;;;;;;;;;;;5030503;28;19983;-87
2023/11/11 00:33:11;;;;;;;;;;;;;;;;;;5041277;28;19925;-87
2023/11/11 00:35:36;;;;;;;;;;;;;;;;;;5035493;28;19917;-87
2023/11/11 00:38:03;;;;;;;;;;;;;;;;;;5042598;28;19925;-89
2023/11/11 00:40:29;;;;;;;;;;;;;;;;;;5032822;28;19976;-88
2023/11/11 00:42:54;;;;;;;;;;;;;;;;;;5016046;28;19968;-86
2023/11/11 00:45:22;;;;;;;;;;;;;;;;;;5026561;28;19952;-87
2023/11/11 00:47:47;;;;;;;;;;;;;;;;;;5023219;28;19917;-87
2023/11/11 00:50:12;;;;;;;;;;;;;;;;;;5037290;28;20004;-91
2023/11/11 00:52:37;;;;;;;;;;;;;;;;;;5028033;28;20417;-90
2023/11/11 00:55:03;;;;;;;;;;;;;;;;;;5032218;28;19940;-89
2023/11/11 00:57:28;;;;;;;;;;;;;;;;;;5032884;28;19921;-87
2023/11/11 00:59:53;;;;;;;;;;;;;;;;;;5033294;28;19917;-86
2023/11/11 01:02:18;;;;;;;;;;;;;;;;;;5035387;28;19925;-89
2023/11/11 01:04:43;;;;;;;;;;;;;;;;;;5029685;28;19974;-85
2023/11/11 01:07:08;;;;;;;;;;;;;;;;;;5026614;28;20375;-88
2023/11/11 01:09:34;;;;;;;;;;;;;;;;;;5020763;28;19921;-86
2023/11/11 01:11:59;;;;;;;;;;;;;;;;;;5030169;28;20016;-88
2023/11/11 01:14:25;;;;;;;;;;;;;;;;;;5025698;28;20003;-86
2023/11/11 01:16:50;;;;;;;;;;;;;;;;;;5030170;28;19953;-86
2023/11/11 01:19:15;;;;;;;;;;;;;;;;;;5032918;28;19921;-89
2023/11/11 01:21:40;;;;;;;;;;;;;;;;;;5035628;28;19921;-86
2023/11/11 01:24:05;;;;;;;;;;;;;;;;;;5042870;28;19924;-89
2023/11/11 01:26:31;;;;;;;;;;;;;;;;;;5043114;28;20310;-86
2023/11/11 01:28:56;;;;;;;;;;;;;;;;;;5032157;28;19964;-88
2023/11/11 01:31:23;;;;;;;;;;;;;;;;;;5036083;28;19940;-86
2023/11/11 01:33:48;;;;;;;;;;;;;;;;;;5034320;28;19925;-87
2023/11/11 01:36:13;;;;;;;;;;;;;;;;;;5033472;28;19927;-87
2023/11/11 01:38:39;;;;;;;;;;;;;;;;;;5029827;28;20386;-86
2023/11/11 01:41:04;;;;;;;;;;;;;;;;;;5037507;28;19925;-87
2023/11/11 01:43:29;;;;;;;;;;;;;;;;;;5045175;28;19921;-87
2023/11/11 01:45:54;;;;;;;;;;;;;;;;;;5032804;28;19972;-86
2023/11/11 01:48:19;;;;;;;;;;;;;;;;;;5025484;28;19917;-88
2023/11/11 01:50:44;;;;;;;;;;;;;;;;;;5040522;28;19921;-86
2023/11/11 01:53:10;;;;;;;;;;;;;;;;;;5033273;28;20089;-88
2023/11/11 01:55:35;;;;;;;;;;;;;;;;;;5042493;28;20133;-85
2023/11/11 01:58:00;;;;;;;;;;;;;;;;;;5044093;28;19918;-86
2023/11/11 02:00:25;;;;;;;;;;;;;;;;;;5050205;28;19988;-86
2023/11/11 02:02:50;;;;;;;;;;;;;;;;;;5035173;28;20402;-88
2023/11/11 02:05:15;;;;;;;;;;;;;;;;;;5032609;28;20012;-87
2023/11/11 02:07:40;;;;;;;;;;;;;;;;;;5022970;28;20290;-86
2023/11/11 02:10:07;;;;;;;;;;;;;;;;;;5031972;28;20375;-85
2023/11/11 02:12:32;;;;;;;;;;;;;;;;;;5040531;28;19927;-85
2023/11/11 02:14:57;;;;;;;;;;;;;;;;;;5032980;28;19940;-87
2023/11/11 02:17:22;;;;;;;;;;;;;;;;;;5024824;28;20358;-86
2023/11/11 02:19:47;;;;;;;;;;;;;;;;;;5020349;28;19924;-86
2023/11/11 02:22:13;;;;;;;;;;;;;;;;;;5031957;28;19968;-86
2023/11/11 02:24:39;;;;;;;;;;;;;;;;;;5033060;28;20438;-86
2023/11/11 02:27:05;;;;;;;;;;;;;;;;;;5032191;28;20027;-87
2023/11/11 02:29:30;;;;;;;;;;;;;;;;;;5033589;28;19921;-86
2023/11/11 02:31:55;;;;;;;;;;;;;;;;;;5023724;28;19928;-85
2023/11/11 02:34:21;;;;;;;;;;;;;;;;;;5024633;28;19929;-86
2023/11/11 02:36:46;;;;;;;;;;;;;;;;;;5030354;28;19928;-85
2023/11/11 02:39:13;;;;;;;;;;;;;;;;;;5028772;28;19921;-87
2023/11/11 02:41:38;;;;;;;;;;;;;;;;;;5027011;28;19928;-85
2023/11/11 02:44:03;;;;;;;;;;;;;;;;;;5022619;28;19921;-89
2023/11/11 02:46:28;;;;;;;;;;;;;;;;;;5030933;28;19933;-86
2023/11/11 02:48:53;;;;;;;;;;;;;;;;;;5023197;28;19921;-86
2023/11/11 02:51:18;;;;;;;;;;;;;;;;;;5024424;28;19921;-88
2023/11/11 02:53:43;;;;;;;;;;;;;;;;;;5019399;28;19929;-86
2023/11/11 02:56:09;;;;;;;;;;;;;;;;;;5018448;28;19977;-88
2023/11/11 02:58:34;;;;;;;;;;;;;;;;;;5024480;28;20030;-88
2023/11/11 03:00:59;;;;;;;;;;;;;;;;;;5033060;28;20389;-86
2023/11/11 03:03:25;;;;;;;;;;;;;;;;;;5030349;28;19921;-88
2023/11/11 03:05:51;;;;;;;;;;;;;;;;;;5021198;28;19921;-87
2023/11/11 03:08:16;;;;;;;;;;;;;;;;;;5032240;28;19928;-89
2023/11/11 03:10:42;;;;;;;;;;;;;;;;;;5023612;28;19924;-87
2023/11/11 03:13:09;;;;;;;;;;;;;;;;;;5033535;28;19937;-86
2023/11/11 03:15:34;;;;;;;;;;;;;;;;;;5032699;28;19921;-85
2023/11/11 03:18:00;;;;;;;;;;;;;;;;;;5028372;28;20205;-85
2023/11/11 03:20:25;;;;;;;;;;;;;;;;;;5019658;28;20024;-85
2023/11/11 03:22:50;;;;;;;;;;;;;;;;;;5032127;28;19917;-85
2023/11/11 03:25:16;;;;;;;;;;;;;;;;;;5023743;28;20400;-88
2023/11/11 03:27:41;;;;;;;;;;;;;;;;;;5026336;28;19922;-87
2023/11/11 03:30:06;;;;;;;;;;;;;;;;;;5022772;28;19975;-88
2023/11/11 03:32:32;;;;;;;;;;;;;;;;;;5033208;28;19925;-85
2023/11/11 03:34:57;;;;;;;;;;;;;;;;;;5032180;28;19932;-88
2023/11/11 03:37:22;;;;;;;;;;;;;;;;;;5029799;28;19917;-86
2023/11/11 03:39:47;;;;;;;;;;;;;;;;;;5019806;28;19925;-87
2023/11/11 03:42:12;;;;;;;;;;;;;;;;;;5016921;28;19921;-85
2023/11/11 03:44:38;;;;;;;;;;;;;;;;;;5017796;28;19922;-87
2023/11/11 03:47:03;;;;;;;;;;;;;;;;;;5030855;28;20345;-88
2023/11/11 03:49:28;;;;;;;;;;;;;;;;;;5027874;28;20301;-86
2023/11/11 03:51:53;;;;;;;;;;;;;;;;;;5029805;28;19943;-86
2023/11/11 03:54:19;;;;;;;;;;;;;;;;;;5033391;28;20386;-86
2023/11/11 03:56:46;;;;;;;;;;;;;;;;;;5030396;28;20044;-87
2023/11/11 03:59:11;;;;;;;;;;;;;;;;;;5019111;28;19932;-86
2023/11/11 04:01:36;;;;;;;;;;;;;;;;;;5020716;28;19921;-84
2023/11/11 04:04:02;;;;;;;;;;;;;;;;;;5017641;28;20011;-86
2023/11/11 04:06:27;;;;;;;;;;;;;;;;;;5017408;28;19929;-88
2023/11/11 04:08:52;;;;;;;;;;;;;;;;;;5028185;28;19921;-86
2023/11/11 04:11:18;;;;;;;;;;;;;;;;;;5039683;28;19932;-87
2023/11/11 04:13:45;;;;;;;;;;;;;;;;;;5026711;28;19961;-86
2023/11/11 04:16:10;;;;;;;;;;;;;;;;;;5026985;28;19960;-87
2023/11/11 04:18:35;;;;;;;;;;;;;;;;;;5027417;28;19921;-87
2023/11/11 04:21:01;;;;;;;;;;;;;;;;;;5016303;28;19925;-86
2023/11/11 04:23:28;;;;;;;;;;;;;;;;;;5028361;28;19998;-86
2023/11/11 04:25:53;;;;;;;;;;;;;;;;;;5024529;28;19925;-86
2023/11/11 04:28:19;;;;;;;;;;;;;;;;;;5034298;28;20493;-86
2023/11/11 04:30:44;;;;;;;;;;;;;;;;;;5041595;28;19917;-86
2023/11/11 04:33:09;;;;;;;;;;;;;;;;;;5038545;28;20401;-88
2023/11/11 04:35:34;;;;;;;;;;;;;;;;;;5048220;28;19956;-86
2023/11/11 04:38:00;;;;;;;;;;;;;;;;;;5030853;28;20655;-86
2023/11/11 04:40:25;;;;;;;;;;;;;;;;;;5032039;28;19921;-85
2023/11/11 04:42:50;;;;;;;;;;;;;;;;;;5032761;28;19917;-85
2023/11/11 04:45:15;;;;;;;;;;;;;;;;;;5029645;28;19928;-86
2023/11/11 04:47:40;;;;;;;;;;;;;;;;;;5030351;28;19921;-87
2023/11/11 04:50:06;;;;;;;;;;;;;;;;;;5034801;28;19921;-86
2023/11/11 04:52:31;;;;;;;;;;;;;;;;;;5043547;28;19927;-87
2023/11/11 04:54:56;;;;;;;;;;;;;;;;;;5028481;28;19925;-84
2023/11/11 04:57:21;;;;;;;;;;;;;;;;;;5027274;28;19928;-83
2023/11/11 04:59:47;;;;;;;;;;;;;;;;;;5026948;28;20402;-83
2023/11/11 05:02:13;;;;;;;;;;;;;;;;;;5030717;28;20063;-83
2023/11/11 05:04:38;;;;;;;;;;;;;;;;;;5024863;28;19921;-83
2023/11/11 05:07:04;;;;;;;;;;;;;;;;;;5028591;28;20035;-84
2023/11/11 05:09:29;;;;;;;;;;;;;;;;;;5024043;28;19917;-83
2023/11/11 05:11:54;;;;;;;;;;;;;;;;;;5033165;28;19925;-84
2023/11/11 05:14:19;;;;;;;;;;;;;;;;;;5020492;28;20187;-86
2023/11/11 05:16:50;;;;;;;;;;;;;;;;;;5028817;28;19967;-83
2023/11/11 05:19:15;;;;;;;;;;;;;;;;;;5032207;28;19956;-84
2023/11/11 05:21:40;;;;;;;;;;;;;;;;;;5024012;28;19921;-88
2023/11/11 05:24:05;;;;;;;;;;;;;;;;;;5031729;28;20402;-83
2023/11/11 05:26:30;;;;;;;;;;;;;;;;;;5017967;28;19921;-85
2023/11/11 05:28:56;;;;;;;;;;;;;;;;;;5021260;28;20241;-83
2023/11/11 05:31:21;;;;;;;;;;;;;;;;;;5026152;28;19929;-84
2023/11/11 05:33:46;;;;;;;;;;;;;;;;;;5031917;28;19936;-83
2023/11/11 05:36:11;;;;;;;;;;;;;;;;;;5026368;28;19957;-86
2023/11/11 05:38:36;;;;;;;;;;;;;;;;;;5033392;28;19921;-85
2023/11/11 05:41:01;;;;;;;;;;;;;;;;;;5033221;28;20422;-85
2023/11/11 05:43:26;;;;;;;;;;;;;;;;;;5032223;28;20059;-83
2023/11/11 05:45:51;;;;;;;;;;;;;;;;;;5023413;28;19983;-83
2023/11/11 05:48:17;;;;;;;;;;;;;;;;;;5028260;28;20016;-84
2023/11/11 05:50:42;;;;;;;;;;;;;;;;;;5028079;28;20018;-85
2023/11/11 05:53:08;;;;;;;;;;;;;;;;;;5023679;28;19925;-84
2023/11/11 05:55:33;;;;;;;;;;;;;;;;;;5023393;28;20271;-84
2023/11/11 05:57:58;;;;;;;;;;;;;;;;;;5024920;28;19917;-87
2023/11/11 06:00:24;;;;;;;;;;;;;;;;;;5014499;28;19940;-83
2023/11/11 06:02:49;;;;;;;;;;;;;;;;;;5032736;28;20345;-86
2023/11/11 06:05:14;;;;;;;;;;;;;;;;;;5030888;28;19924;-83
2023/11/11 06:07:39;;;;;;;;;;;;;;;;;;5014771;28;19932;-80
2023/11/11 06:10:04;;;;;;;;;;;;;;;;;;5028833;28;19925;-83
2023/11/11 06:12:29;;;;;;;;;;;;;;;;;;5031896;28;20271;-83
2023/11/11 06:14:55;;;;;;;;;;;;;;;;;;5033640;28;19971;-83
2023/11/11 06:17:20;;;;;;;;;;;;;;;;;;5028557;28;20016;-83
2023/11/11 06:19:45;;;;;;;;;;;;;;;;;;5022998;28;20003;-84
2023/11/11 06:22:10;;;;;;;;;;;;;;;;;;5021339;28;19929;-83
2023/11/11 06:24:36;;;;;;;;;;;;;;;;;;5031218;28;20408;-82
2023/11/11 06:27:01;;;;;;;;;;;;;;;;;;5023852;28;19925;-81
2023/11/11 06:29:26;;;;;;;;;;;;;;;;;;5025436;28;19928;-83
2023/11/11 06:31:54;;;;;;;;;;;;;;;;;;5022043;28;20350;-82
2023/11/11 06:34:19;;;;;;;;;;;;;;;;;;5029453;28;20298;-82
2023/11/11 06:36:44;;;;;;;;;;;;;;;;;;5026339;28;19929;-82
2023/11/11 06:39:09;;;;;;;;;;;;;;;;;;5020638;28;19921;-84
2023/11/11 06:41:34;;;;;;;;;;;;;;;;;;5032622;28;19925;-83
2023/11/11 06:43:59;;;;;;;;;;;;;;;;;;5030587;28;19928;-83
2023/11/11 06:46:24;;;;;;;;;;;;;;;;;;5030945;28;19929;-83
2023/11/11 06:48:50;;;;;;;;;;;;;;;;;;5025301;28;20077;-83
2023/11/11 06:51:16;;;;;;;;;;;;;;;;;;5030364;28;20399;-82
2023/11/11 06:53:41;;;;;;;;;;;;;;;;;;5031431;28;20062;-82
2023/11/11 06:56:06;;;;;;;;;;;;;;;;;;5029018;28;19951;-84
2023/11/11 06:58:31;;;;;;;;;;;;;;;;;;5029974;28;19921;-83
2023/11/11 07:00:58;;;;;;;;;;;;;;;;;;5032831;28;19917;-83
2023/11/11 07:03:23;;;;;;;;;;;;;;;;;;5020621;28;19933;-82
2023/11/11 07:05:48;;;;;;;;;;;;;;;;;;5027395;28;19921;-84
2023/11/11 07:08:13;;;;;;;;;;;;;;;;;;5024083;28;19925;-82
2023/11/11 07:10:39;;;;;;;;;;;;;;;;;;5026239;28;20386;-82
2023/11/11 07:13:06;;;;;;;;;;;;;;;;;;5030042;28;20024;-83
2023/11/11 07:15:31;;;;;;;;;;;;;;;;;;5024306;28;20337;-81
2023/11/11 07:17:56;;;;;;;;;;;;;;;;;;5030145;28;20342;-82
2023/11/11 07:20:21;;;;;;;;;;;;;;;;;;5024322;28;20006;-82
2023/11/11 07:22:46;;;;;;;;;;;;;;;;;;5031940;28;19914;-83
2023/11/11 07:25:12;;;;;;;;;;;;;;;;;;5030907;28;19921;-82
2023/11/11 07:27:37;;;;;;;;;;;;;;;;;;5029920;28;20404;-83
2023/11/11 07:30:04;;;;;;;;;;;;;;;;;;5031702;28;19921;-83
2023/11/11 07:32:29;;;;;;;;;;;;;;;;;;5022993;28;20375;-82
2023/11/11 07:34:54;;;;;;;;;;;;;;;;;;5031250;28;20448;-83
2023/11/11 07:37:21;;;;;;;;;;;;;;;;;;5030206;28;19921;-82
2023/11/11 07:39:46;;;;;;;;;;;;;;;;;;5027720;28;19929;-85
2023/11/11 07:42:11;;;;;;;;;;;;;;;;;;5021447;28;19917;-82
2023/11/11 07:44:36;;;;;;;;;;;;;;;;;;5030685;28;20397;-82
2023/11/11 07:47:06;;;;;;;;;;;;;;;;;;5026708;28;19932;-83
2023/11/11 07:49:31;;;;;;;;;;;;;;;;;;5025819;28;19956;-84
2023/11/11 07:51:56;;;;;;;;;;;;;;;;;;5028886;28;19928;-82
2023/11/11 07:54:21;;;;;;;;;;;;;;;;;;5021827;28;19957;-83
2023/11/11 07:56:47;;;;;;;;;;;;;;;;;;5040780;28;20198;-84
2023/11/11 07:59:13;;;;;;;;;;;;;;;;;;5022487;28;19929;-83
2023/11/11 08:01:38;;;;;;;;;;;;;;;;;;5026679;28;20367;-84
2023/11/11 08:04:04;;;;;;;;;;;;;;;;;;5028769;28;19931;-82
2023/11/11 08:06:29;;;;;;;;;;;;;;;;;;5016216;28;20063;-82
2023/11/11 08:08:54;;;;;;;;;;;;;;;;;;5026289;28;19933;-85
2023/11/11 08:11:19;;;;;;;;;;;;;;;;;;5026389;28;19928;-84
2023/11/11 08:13:44;;;;;;;;;;;;;;;;;;5026624;28;19936;-85
2023/11/11 08:16:11;;;;;;;;;;;;;;;;;;5030137;28;19921;-83
2023/11/11 08:18:36;;;;;;;;;;;;;;;;;;5034582;28;20000;-84
2023/11/11 08:21:01;;;;;;;;;;;;;;;;;;5037920;28;19998;-84
2023/11/11 08:23:26;;;;;;;;;;;;;;;;;;5024241;28;19929;-85
2023/11/11 08:25:52;;;;;;;;;;;;;;;;;;5044162;28;19921;-84
2023/11/11 08:28:17;;;;;;;;;;;;;;;;;;5026922;28;20514;-86
2023/11/11 08:30:42;;;;;;;;;;;;;;;;;;5032101;28;19936;-84
2023/11/11 08:33:08;;;;;;;;;;;;;;;;;;5033793;28;19921;-86
2023/11/11 08:35:33;;;;;;;;;;;;;;;;;;5036136;28;19917;-85
2023/11/11 08:38:00;;;;;;;;;;;;;;;;;;5044307;28;19928;-84
2023/11/11 08:40:25;;;;;;;;;;;;;;;;;;5041940;28;20256;-84
2023/11/11 08:42:50;;;;;;;;;;;;;;;;;;5042954;28;19925;-84
2023/11/11 08:45:16;;;;;;;;;;;;;;;;;;5033184;28;19928;-85
2023/11/11 08:47:41;;;;;;;;;;;;;;;;;;5026431;28;20392;-84
2023/11/11 08:50:09;;;;;;;;;;;;;;;;;;5031072;28;19957;-83
2023/11/11 08:52:34;;;;;;;;;;;;;;;;;;5035181;28;19924;-85
2023/11/11 08:54:59;;;;;;;;;;;;;;;;;;5032041;28;19933;-83
2023/11/11 08:57:24;;;;;;;;;;;;;;;;;;5024578;28;19925;-84
2023/11/11 08:59:49;;;;;;;;;;;;;;;;;;5033880;28;19921;-85
2023/11/11 09:02:14;;;;;;;;;;;;;;;;;;5026051;28;20399;-85
2023/11/11 09:04:39;;;;;;;;;;;;;;;;;;5042421;28;19925;-88
2023/11/11 09:07:05;;;;;;;;;;;;;;;;;;5039005;28;19921;-86
2023/11/11 09:09:30;;;;;;;;;;;;;;;;;;5027719;28;20279;-86
2023/11/11 09:11:55;;;;;;;;;;;;;;;;;;5020434;28;20015;-86
2023/11/11 09:14:21;;;;;;;;;;;;;;;;;;5035894;28;20024;-87
2023/11/11 09:16:46;;;;;;;;;;;;;;;;;;5044740;28;19925;-87
2023/11/11 09:19:11;;;;;;;;;;;;;;;;;;5028132;28;19921;-89
2023/11/11 09:21:38;;;;;;;;;;;;;;;;;;5037594;28;19921;-86
2023/11/11 09:24:03;;;;;;;;;;;;;;;;;;5023508;28;19969;-85
2023/11/11 09:26:29;;;;;;;;;;;;;;;;;;5032632;28;19944;-86
2023/11/11 09:28:54;;;;;;;;;;;;;;;;;;5032769;28;19956;-86
2023/11/11 09:31:20;;;;;;;;;;;;;;;;;;5037387;28;19925;-87
2023/11/11 09:33:45;;;;;;;;;;;;;;;;;;5046385;28;19968;-86
2023/11/11 09:36:11;;;;;;;;;;;;;;;;;;5063651;28;19921;-83
2023/11/11 09:38:36;;;;;;;;;;;;;;;;;;5031134;28;20149;-87
2023/11/11 09:41:03;;;;;;;;;;;;;;;;;;5035961;28;19970;-86
2023/11/11 09:43:28;;;;;;;;;;;;;;;;;;5054208;28;19928;-84
2023/11/11 09:45:53;;;;;;;;;;;;;;;;;;5032383;28;19964;-87
2023/11/11 09:48:18;;;;;;;;;;;;;;;;;;5033326;28;19927;-86
2023/11/11 09:50:43;;;;;;;;;;;;;;;;;;5039749;28;19931;-88
2023/11/11 09:53:08;;;;;;;;;;;;;;;;;;5054325;28;20020;-85
2023/11/11 09:55:34;;;;;;;;;;;;;;;;;;5037267;28;20020;-86
2023/11/11 09:57:59;;;;;;;;;;;;;;;;;;5043101;28;20400;-85
2023/11/11 10:00:24;;;;;;;;;;;;;;;;;;5037880;28;19917;-85
2023/11/11 10:02:49;;;;;;;;;;;;;;;;;;5037472;28;19914;-84
2023/11/11 10:05:14;;;;;;;;;;;;;;;;;;5021714;28;19970;-86
2023/11/11 10:07:40;;;;;;;;;;;;;;;;;;5025390;28;19918;-88
2023/11/11 10:10:05;;;;;;;;;;;;;;;;;;5019391;28;19953;-85
2023/11/11 10:12:30;;;;;;;;;;;;;;;;;;5027326;28;19921;-85
2023/11/11 10:14:56;;;;;;;;;;;;;;;;;;5026107;28;19922;-86
2023/11/11 10:17:21;;;;;;;;;;;;;;;;;;5032777;28;20011;-86
2023/11/11 10:19:46;;;;;;;;;;;;;;;;;;5021738;28;19917;-87
2023/11/11 10:22:11;;;;;;;;;;;;;;;;;;5031811;28;20004;-85
2023/11/11 10:24:36;;;;;;;;;;;;;;;;;;5036564;28;20326;-86
2023/11/11 10:27:02;;;;;;;;;;;;;;;;;;5043291;28;19943;-87
2023/11/11 10:29:27;;;;;;;;;;;;;;;;;;5044829;28;19945;-86
2023/11/11 10:31:53;;;;;;;;;;;;;;;;;;5043992;28;19924;-87
2023/11/11 10:34:18;;;;;;;;;;;;;;;;;;5027796;28;19922;-86
2023/11/11 10:36:43;;;;;;;;;;;;;;;;;;5053128;28;19928;-86
2023/11/11 10:39:11;;;;;;;;;;;;;;;;;;5050312;28;19917;-86
2023/11/11 10:41:36;;;;;;;;;;;;;;;;;;5065321;28;20378;-87
2023/11/11 10:44:02;;;;;;;;;;;;;;;;;;5042551;28;19945;-87
2023/11/11 10:46:27;;;;;;;;;;;;;;;;;;5044631;28;20025;-87
2023/11/11 10:48:52;;;;;;;;;;;;;;;;;;5040205;28;20011;-86
2023/11/11 10:51:17;;;;;;;;;;;;;;;;;;5037448;28;20017;-86
2023/11/11 10:53:42;;;;;;;;;;;;;;;;;;5038680;28;20389;-87
2023/11/11 10:56:07;;;;;;;;;;;;;;;;;;5030969;28;20023;-87
2023/11/11 10:58:33;;;;;;;;;;;;;;;;;;5029771;28;19918;-87
2023/11/11 11:00:59;;;;;;;;;;;;;;;;;;5034039;28;19951;-86
2023/11/11 11:03:24;;;;;;;;;;;;;;;;;;5048867;28;19921;-86
2023/11/11 11:05:49;;;;;;;;;;;;;;;;;;5040646;28;19917;-86
2023/11/11 11:08:15;;;;;;;;;;;;;;;;;;5044758;28;19922;-87
2023/11/11 11:10:40;;;;;;;;;;;;;;;;;;5037764;28;19948;-86
2023/11/11 11:13:05;;;;;;;;;;;;;;;;;;5036355;28;19921;-86
2023/11/11 11:15:30;;;;;;;;;;;;;;;;;;5044609;28;19948;-86
2023/11/11 11:17:55;;;;;;;;;;;;;;;;;;5035186;28;20405;-86
2023/11/11 11:20:24;;;;;;;;;;;;;;;;;;5033834;28;19986;-86
2023/11/11 11:22:49;;;;;;;;;;;;;;;;;;5044125;28;19917;-86
2023/11/11 11:25:14;;;;;;;;;;;;;;;;;;5044108;28;19920;-86
2023/11/11 11:27:39;;;;;;;;;;;;;;;;;;5044730;28;19917;-87
2023/11/11 11:30:04;;;;;;;;;;;;;;;;;;5041330;28;19928;-86
2023/11/11 11:32:33;;;;;;;;;;;;;;;;;;5039210;28;19917;-86
2023/11/11 11:34:58;;;;;;;;;;;;;;;;;;5048719;28;19921;-86
2023/11/11 11:37:23;;;;;;;;;;;;;;;;;;5049967;28;19932;-87
2023/11/11 11:39:48;;;;;;;;;;;;;;;;;;5048655;28;19959;-87
2023/11/11 11:42:17;;;;;;;;;;;;;;;;;;5041575;28;20403;-87
2023/11/11 11:44:43;;;;;;;;;;;;;;;;;;5051817;28;19925;-86
2023/11/11 11:47:08;;;;;;;;;;;;;;;;;;5042359;28;19963;-87
2023/11/11 11:49:34;;;;;;;;;;;;;;;;;;5045751;28;19916;-86
2023/11/11 11:51:59;;;;;;;;;;;;;;;;;;5035085;28;19921;-86
2023/11/11 11:54:24;;;;;;;;;;;;;;;;;;5034853;28;19931;-86
2023/11/11 11:56:49;;;;;;;;;;;;;;;;;;5050062;28;19917;-86
2023/11/11 11:59:17;;;;;;;;;;;;;;;;;;5037151;28;19918;-86
2023/11/11 12:01:42;;;;;;;;;;;;;;;;;;5045259;28;19917;-86
2023/11/11 12:04:07;;;;;;;;;;;;;;;;;;5037393;28;19971;-86
2023/11/11 12:06:32;;;;;;;;;;;;;;;;;;5042353;28;19917;-86
2023/11/11 12:08:57;;;;;;;;;;;;;;;;;;5038912;28;20406;-85
2023/11/11 12:11:23;;;;;;;;;;;;;;;;;;5039801;28;19925;-86
2023/11/11 12:13:49;;;;;;;;;;;;;;;;;;5053368;28;19921;-86
2023/11/11 12:16:14;;;;;;;;;;;;;;;;;;5036169;28;19983;-86
2023/11/11 12:18:40;;;;;;;;;;;;;;;;;;5043370;28;19924;-86
2023/11/11 12:21:05;;;;;;;;;;;;;;;;;;5033017;28;20294;-86
2023/11/11 12:23:30;;;;;;;;;;;;;;;;;;5040925;28;19924;-86
2023/11/11 12:25:55;;;;;;;;;;;;;;;;;;5030930;28;19916;-86
2023/11/11 12:28:20;;;;;;;;;;;;;;;;;;5038707;28;19925;-86
2023/11/11 12:30:45;;;;;;;;;;;;;;;;;;5042155;28;19925;-86
2023/11/11 12:33:11;;;;;;;;;;;;;;;;;;5031259;28;19917;-86
2023/11/11 12:35:36;;;;;;;;;;;;;;;;;;5037435;28;19917;-86
2023/11/11 12:38:01;;;;;;;;;;;;;;;;;;5031806;28;19921;-87
2023/11/11 12:40:28;;;;;;;;;;;;;;;;;;5030733;28;20279;-87
2023/11/11 12:42:53;;;;;;;;;;;;;;;;;;5041315;28;19966;-86
2023/11/11 12:45:18;;;;;;;;;;;;;;;;;;5041696;28;19917;-86
2023/11/11 12:47:43;;;;;;;;;;;;;;;;;;5041640;28;19925;-86
2023/11/11 12:50:08;;;;;;;;;;;;;;;;;;5039466;28;19983;-87
2023/11/11 12:52:33;;;;;;;;;;;;;;;;;;5032500;28;19985;-86
2023/11/11 12:55:00;;;;;;;;;;;;;;;;;;5054847;28;20348;-86
2023/11/11 12:57:27;;;;;;;;;;;;;;;;;;5039354;28;19921;-86
2023/11/11 12:59:52;;;;;;;;;;;;;;;;;;5043019;28;20403;-86
2023/11/11 13:02:17;;;;;;;;;;;;;;;;;;5032808;28;19944;-86
2023/11/11 13:04:42;;;;;;;;;;;;;;;;;;5034825;28;19952;-86
2023/11/11 13:07:07;;;;;;;;;;;;;;;;;;5033176;28;20008;-86
2023/11/11 13:09:32;;;;;;;;;;;;;;;;;;5034254;28;20071;-86
2023/11/11 13:11:58;;;;;;;;;;;;;;;;;;5037249;28;19920;-87
2023/11/11 13:14:23;;;;;;;;;;;;;;;;;;5039103;28;19925;-87
2023/11/11 13:16:48;;;;;;;;;;;;;;;;;;5039845;28;19921;-87
2023/11/11 13:19:13;;;;;;;;;;;;;;;;;;5042673;28;19917;-87
2023/11/11 13:21:39;;;;;;;;;;;;;;;;;;5036366;28;19940;-87
2023/11/11 13:24:06;;;;;;;;;;;;;;;;;;5040500;28;19980;-87
2023/11/11 13:26:31;;;;;;;;;;;;;;;;;;5046976;28;19951;-87
2023/11/11 13:28:56;;;;;;;;;;;;;;;;;;5054916;28;19924;-86
2023/11/11 13:31:24;;;;;;;;;;;;;;;;;;5037710;28;19924;-87
2023/11/11 13:33:50;;;;;;;;;;;;;;;;;;5035064;28;19921;-87
2023/11/11 13:36:23;;;;;;;;;;;;;;;;;;5029874;28;19917;-86
2023/11/11 13:38:48;;;;;;;;;;;;;;;;;;5046525;28;19924;-86
2023/11/11 13:41:14;;;;;;;;;;;;;;;;;;5036633;28;19917;-87
2023/11/11 13:43:41;;;;;;;;;;;;;;;;;;5038796;28;20180;-85
2023/11/11 13:46:06;;;;;;;;;;;;;;;;;;5037906;28;19917;-85
2023/11/11 13:48:32;;;;;;;;;;;;;;;;;;5036593;28;19924;-84
2023/11/11 13:50:58;;;;;;;;;;;;;;;;;;5037605;28;19921;-85
2023/11/11 13:53:23;;;;;;;;;;;;;;;;;;5036701;28;19928;-85
2023/11/11 13:55:48;;;;;;;;;;;;;;;;;;5037173;28;20385;-85
2023/11/11 13:58:13;;;;;;;;;;;;;;;;;;5036149;28;19928;-83
2023/11/11 14:00:38;;;;;;;;;;;;;;;;;;5036738;28;19925;-85
2023/11/11 14:03:10;;;;;;;;;;;;;;;;;;5035160;28;19924;-86
2023/11/11 14:05:44;;;;;;;;;;;;;;;;;;5036056;28;20371;-85
2023/11/11 14:08:09;;;;;;;;;;;;;;;;;;5036059;28;20362;-85
2023/11/11 14:10:36;;;;;;;;;;;;;;;;;;5035372;28;19924;-86
2023/11/11 14:13:01;;;;;;;;;;;;;;;;;;5036702;28;19933;-85
2023/11/11 14:15:38;;;;;;;;;;;;;;;;;;5035592;28;19930;-85
2023/11/11 14:18:03;;;;;;;;;;;;;;;;;;5034800;28;20213;-84
2023/11/11 14:20:29;;;;;;;;;;;;;;;;;;5035278;28;19957;-85
2023/11/11 14:22:55;;;;;;;;;;;;;;;;;;5037227;28;20000;-86
2023/11/11 14:25:20;;;;;;;;;;;;;;;;;;5035986;28;19923;-85
2023/11/11 14:27:45;;;;;;;;;;;;;;;;;;5035469;28;19921;-85
2023/11/11 14:30:11;;;;;;;;;;;;;;;;;;5032519;28;19924;-86
2023/11/11 14:32:42;;;;;;;;;;;;;;;;;;5036462;28;19928;-84
2023/11/11 14:35:07;;;;;;;;;;;;;;;;;;5036815;28;19975;-84
2023/11/11 14:37:32;;;;;;;;;;;;;;;;;;5037354;28;19929;-85
2023/11/11 14:39:58;;;;;;;;;;;;;;;;;;5035845;28;19952;-84
2023/11/11 14:42:24;;;;;;;;;;;;;;;;;;5035260;28;19924;-84
2023/11/11 14:44:49;;;;;;;;;;;;;;;;;;5025080;28;19922;-87
2023/11/11 14:47:14;;;;;;;;;;;;;;;;;;5027844;28;20103;-86
2023/11/11 14:49:39;;;;;;;;;;;;;;;;;;5026426;28;19921;-86
2023/11/11 14:52:04;;;;;;;;;;;;;;;;;;5035065;28;20268;-86
2023/11/11 14:54:29;;;;;;;;;;;;;;;;;;5038597;28;19921;-87
2023/11/11 14:56:54;;;;;;;;;;;;;;;;;;5041845;28;19933;-86
2023/11/11 14:59:19;;;;;;;;;;;;;;;;;;5039121;28;20444;-86
2023/11/11 15:01:45;;;;;;;;;;;;;;;;;;5039179;28;20501;-87
2023/11/11 15:04:10;;;;;;;;;;;;;;;;;;5034611;28;19975;-86
2023/11/11 15:06:36;;;;;;;;;;;;;;;;;;5037842;28;19953;-85
2023/11/11 15:09:01;;;;;;;;;;;;;;;;;;5032936;28;19929;-88
2023/11/11 15:11:26;;;;;;;;;;;;;;;;;;5029397;28;20280;-87
2023/11/11 15:13:51;;;;;;;;;;;;;;;;;;5026533;28;19930;-85
2023/11/11 15:16:16;;;;;;;;;;;;;;;;;;5025741;28;19925;-85
2023/11/11 15:18:42;;;;;;;;;;;;;;;;;;5034005;28;20161;-85
2023/11/11 15:21:07;;;;;;;;;;;;;;;;;;5028445;28;20326;-85
2023/11/11 15:23:32;;;;;;;;;;;;;;;;;;5020697;28;19921;-86
2023/11/11 15:26:00;;;;;;;;;;;;;;;;;;5026069;28;19999;-86
2023/11/11 15:28:25;;;;;;;;;;;;;;;;;;5034508;28;19989;-86
2023/11/11 15:30:52;;;;;;;;;;;;;;;;;;5023753;28;20433;-84
2023/11/11 15:33:17;;;;;;;;;;;;;;;;;;5035630;28;19924;-85
2023/11/11 15:35:43;;;;;;;;;;;;;;;;;;5034807;28;19921;-84
2023/11/11 15:38:09;;;;;;;;;;;;;;;;;;5042715;28;19956;-84
2023/11/11 15:40:35;;;;;;;;;;;;;;;;;;5021818;28;19921;-86
2023/11/11 15:43:01;;;;;;;;;;;;;;;;;;5029581;28;20074;-85
2023/11/11 15:45:26;;;;;;;;;;;;;;;;;;5031767;28;19980;-86
2023/11/11 15:47:51;;;;;;;;;;;;;;;;;;5028152;28;19983;-84
2023/11/11 15:50:16;;;;;;;;;;;;;;;;;;5028719;28;20012;-87
2023/11/11 15:52:43;;;;;;;;;;;;;;;;;;5026247;28;19979;-87
2023/11/11 15:55:09;;;;;;;;;;;;;;;;;;5025774;28;19925;-85
2023/11/11 15:57:34;;;;;;;;;;;;;;;;;;5032465;28;19979;-87
2023/11/11 15:59:59;;;;;;;;;;;;;;;;;;5025849;28;19925;-86
2023/11/11 16:02:24;;;;;;;;;;;;;;;;;;5031956;28;20278;-85
2023/11/11 16:04:49;;;;;;;;;;;;;;;;;;5030060;28;19960;-86
2023/11/11 16:07:14;;;;;;;;;;;;;;;;;;5030074;28;20195;-87
2023/11/11 16:09:40;;;;;;;;;;;;;;;;;;5033907;28;20024;-84
2023/11/11 16:12:07;;;;;;;;;;;;;;;;;;5024318;28;19983;-84
2023/11/11 16:14:32;;;;;;;;;;;;;;;;;;5027344;28;20411;-85
2023/11/11 16:16:57;;;;;;;;;;;;;;;;;;5025703;28;20374;-83
2023/11/11 16:19:22;;;;;;;;;;;;;;;;;;5029499;28;19979;-84
2023/11/11 16:21:48;;;;;;;;;;;;;;;;;;5021886;28;20041;-85
2023/11/11 16:24:14;;;;;;;;;;;;;;;;;;5024152;28;20444;-85
2023/11/11 16:26:41;;;;;;;;;;;;;;;;;;5018122;28;19939;-85
2023/11/11 16:29:06;;;;;;;;;;;;;;;;;;5035557;28;19968;-86
2023/11/11 16:31:34;;;;;;;;;;;;;;;;;;5031081;28;19948;-85
2023/11/11 16:33:59;;;;;;;;;;;;;;;;;;5033133;28;20382;-85